sensor_id;sensor_type;location;lat;lon;timestamp;pressure;altitude;pressure_sealevel;temperature
23208;BMP180;11773;52.570;13.052;2022-10-31T00:01:45;101563.00;;;17.20
23208;BMP180;11773;52.570;13.052;2022-10-31T00:04:14;101558.00;;;17.20
23208;BMP180;11773;52.570;13.052;2022-10-31T00:06:44;101568.00;;;17.20
23208;BMP180;11773;52.570;13.052;2022-10-31T00:09:13;101551.00;;;17.20
23208;BMP180;11773;52.570;13.052;2022-10-31T00:11:43;101560.00;;;17.20
23208;BMP180;11773;52.570;13.052;2022-10-31T00:14:12;101559.00;;;17.10
23208;BMP180;11773;52.570;13.052;2022-10-31T00:16:42;101563.00;;;17.10
23208;BMP180;11773;52.570;13.052;2022-10-31T00:19:11;101569.00;;;17.10
23208;BMP180;11773;52.570;13.052;2022-10-31T00:21:41;101576.00;;;17.10
23208;BMP180;11773;52.570;13.052;2022-10-31T00:24:11;101578.00;;;17.00
23208;BMP180;11773;52.570;13.052;2022-10-31T00:26:41;101582.00;;;17.00
23208;BMP180;11773;52.570;13.052;2022-10-31T00:29:11;101578.00;;;17.00
23208;BMP180;11773;52.570;13.052;2022-10-31T00:31:41;101574.00;;;17.00
23208;BMP180;11773;52.570;13.052;2022-10-31T00:34:10;101590.00;;;17.00
23208;BMP180;11773;52.570;13.052;2022-10-31T00:36:40;101588.00;;;16.90
23208;BMP180;11773;52.570;13.052;2022-10-31T00:39:09;101591.00;;;16.90
23208;BMP180;11773;52.570;13.052;2022-10-31T00:41:39;101591.00;;;16.90
23208;BMP180;11773;52.570;13.052;2022-10-31T00:44:08;101591.00;;;16.90
23208;BMP180;11773;52.570;13.052;2022-10-31T00:46:38;101592.00;;;16.90
23208;BMP180;11773;52.570;13.052;2022-10-31T00:49:07;101591.00;;;16.80
23208;BMP180;11773;52.570;13.052;2022-10-31T00:51:37;101591.00;;;16.80
23208;BMP180;11773;52.570;13.052;2022-10-31T00:54:07;101591.00;;;16.80
23208;BMP180;11773;52.570;13.052;2022-10-31T00:56:36;101591.00;;;16.80
23208;BMP180;11773;52.570;13.052;2022-10-31T00:59:06;101600.00;;;16.80
23208;BMP180;11773;52.570;13.052;2022-10-31T01:01:35;101597.00;;;16.80
23208;BMP180;11773;52.570;13.052;2022-10-31T01:04:05;101614.00;;;16.80
23208;BMP180;11773;52.570;13.052;2022-10-31T01:06:34;101591.00;;;16.80
23208;BMP180;11773;52.570;13.052;2022-10-31T01:09:04;101597.00;;;16.80
23208;BMP180;11773;52.570;13.052;2022-10-31T01:11:33;101592.00;;;16.80
23208;BMP180;11773;52.570;13.052;2022-10-31T01:14:03;101591.00;;;16.80
23208;BMP180;11773;52.570;13.052;2022-10-31T01:16:32;101608.00;;;16.80
23208;BMP180;11773;52.570;13.052;2022-10-31T01:19:02;101597.00;;;16.70
23208;BMP180;11773;52.570;13.052;2022-10-31T01:21:32;101612.00;;;16.70
23208;BMP180;11773;52.570;13.052;2022-10-31T01:24:02;101603.00;;;16.70
23208;BMP180;11773;52.570;13.052;2022-10-31T01:26:33;101604.00;;;16.70
23208;BMP180;11773;52.570;13.052;2022-10-31T01:29:06;101600.00;;;16.70
23208;BMP180;11773;52.570;13.052;2022-10-31T01:31:39;101615.00;;;16.70
23208;BMP180;11773;52.570;13.052;2022-10-31T01:34:15;101605.00;;;16.70
23208;BMP180;11773;52.570;13.052;2022-10-31T01:36:46;101619.00;;;16.70
23208;BMP180;11773;52.570;13.052;2022-10-31T01:39:19;101608.00;;;16.60
23208;BMP180;11773;52.570;13.052;2022-10-31T01:41:52;101619.00;;;16.60
23208;BMP180;11773;52.570;13.052;2022-10-31T01:45:11;101618.00;;;16.60
23208;BMP180;11773;52.570;13.052;2022-10-31T01:47:10;101605.00;;;16.60
23208;BMP180;11773;52.570;13.052;2022-10-31T01:49:51;101608.00;;;16.60
23208;BMP180;11773;52.570;13.052;2022-10-31T01:52:28;101621.00;;;16.60
23208;BMP180;11773;52.570;13.052;2022-10-31T01:55:22;101615.00;;;16.60
23208;BMP180;11773;52.570;13.052;2022-10-31T01:57:50;101612.00;;;16.60
23208;BMP180;11773;52.570;13.052;2022-10-31T02:00:22;101609.00;;;16.50
23208;BMP180;11773;52.570;13.052;2022-10-31T02:02:52;101602.00;;;16.50
23208;BMP180;11773;52.570;13.052;2022-10-31T02:05:27;101603.00;;;16.50
23208;BMP180;11773;52.570;13.052;2022-10-31T02:08:41;101603.00;;;16.50
23208;BMP180;11773;52.570;13.052;2022-10-31T02:10:44;101602.00;;;16.50
23208;BMP180;11773;52.570;13.052;2022-10-31T02:13:14;101615.00;;;16.50
23208;BMP180;11773;52.570;13.052;2022-10-31T02:15:47;101601.00;;;16.40
23208;BMP180;11773;52.570;13.052;2022-10-31T02:18:17;101601.00;;;16.40
23208;BMP180;11773;52.570;13.052;2022-10-31T02:21:16;101618.00;;;16.40
23208;BMP180;11773;52.570;13.052;2022-10-31T02:27:16;101618.00;;;16.30
23208;BMP180;11773;52.570;13.052;2022-10-31T02:30:11;101618.00;;;16.30
23208;BMP180;11773;52.570;13.052;2022-10-31T02:33:01;101634.00;;;16.30
23208;BMP180;11773;52.570;13.052;2022-10-31T02:39:12;101634.00;;;16.20
23208;BMP180;11773;52.570;13.052;2022-10-31T02:42:06;101629.00;;;16.20
23208;BMP180;11773;52.570;13.052;2022-10-31T02:47:27;101631.00;;;16.10
23208;BMP180;11773;52.570;13.052;2022-10-31T02:50:11;101643.00;;;16.10
23208;BMP180;11773;52.570;13.052;2022-10-31T02:52:41;101635.00;;;16.10
23208;BMP180;11773;52.570;13.052;2022-10-31T02:58:12;101625.00;;;16.10
23208;BMP180;11773;52.570;13.052;2022-10-31T03:01:09;101640.00;;;16.10
23208;BMP180;11773;52.570;13.052;2022-10-31T03:04:14;101635.00;;;16.10
23208;BMP180;11773;52.570;13.052;2022-10-31T03:10:08;101639.00;;;16.10
23208;BMP180;11773;52.570;13.052;2022-10-31T03:13:01;101640.00;;;16.10
23208;BMP180;11773;52.570;13.052;2022-10-31T03:15:38;101645.00;;;16.00
23208;BMP180;11773;52.570;13.052;2022-10-31T03:18:23;101649.00;;;16.10
23208;BMP180;11773;52.570;13.052;2022-10-31T03:21:15;101654.00;;;16.10
23208;BMP180;11773;52.570;13.052;2022-10-31T03:23:24;101653.00;;;16.10
23208;BMP180;11773;52.570;13.052;2022-10-31T03:25:55;101656.00;;;16.10
23208;BMP180;11773;52.570;13.052;2022-10-31T03:28:31;101663.00;;;16.10
23208;BMP180;11773;52.570;13.052;2022-10-31T03:31:03;101665.00;;;16.10
23208;BMP180;11773;52.570;13.052;2022-10-31T03:33:37;101678.00;;;16.10
23208;BMP180;11773;52.570;13.052;2022-10-31T03:36:10;101667.00;;;16.10
23208;BMP180;11773;52.570;13.052;2022-10-31T03:38:42;101669.00;;;16.10
23208;BMP180;11773;52.570;13.052;2022-10-31T03:41:18;101669.00;;;16.10
23208;BMP180;11773;52.570;13.052;2022-10-31T03:43:58;101676.00;;;16.10
23208;BMP180;11773;52.570;13.052;2022-10-31T03:46:23;101672.00;;;16.10
23208;BMP180;11773;52.570;13.052;2022-10-31T03:48:53;101689.00;;;16.10
23208;BMP180;11773;52.570;13.052;2022-10-31T04:00:14;101696.00;;;16.10
23208;BMP180;11773;52.570;13.052;2022-10-31T04:02:53;101690.00;;;16.10
23208;BMP180;11773;52.570;13.052;2022-10-31T04:05:21;101694.00;;;16.10
23208;BMP180;11773;52.570;13.052;2022-10-31T04:07:55;101685.00;;;16.10
23208;BMP180;11773;52.570;13.052;2022-10-31T04:10:28;101694.00;;;16.10
23208;BMP180;11773;52.570;13.052;2022-10-31T04:13:11;101682.00;;;16.10
23208;BMP180;11773;52.570;13.052;2022-10-31T04:15:39;101691.00;;;16.10
23208;BMP180;11773;52.570;13.052;2022-10-31T04:18:10;101697.00;;;16.10
23208;BMP180;11773;52.570;13.052;2022-10-31T04:20:42;101694.00;;;16.10
23208;BMP180;11773;52.570;13.052;2022-10-31T04:23:26;101700.00;;;16.10
23208;BMP180;11773;52.570;13.052;2022-10-31T04:25:51;101705.00;;;16.10
23208;BMP180;11773;52.570;13.052;2022-10-31T04:28:21;101702.00;;;16.10
23208;BMP180;11773;52.570;13.052;2022-10-31T04:30:52;101696.00;;;16.10
23208;BMP180;11773;52.570;13.052;2022-10-31T04:33:21;101698.00;;;16.10
23208;BMP180;11773;52.570;13.052;2022-10-31T04:35:51;101710.00;;;16.10
23208;BMP180;11773;52.570;13.052;2022-10-31T04:38:21;101707.00;;;16.10
23208;BMP180;11773;52.570;13.052;2022-10-31T04:40:50;101693.00;;;16.10
23208;BMP180;11773;52.570;13.052;2022-10-31T04:43:20;101695.00;;;16.10
23208;BMP180;11773;52.570;13.052;2022-10-31T04:45:50;101695.00;;;16.10
23208;BMP180;11773;52.570;13.052;2022-10-31T04:48:19;101704.00;;;16.10
23208;BMP180;11773;52.570;13.052;2022-10-31T04:50:49;101708.00;;;16.10
23208;BMP180;11773;52.570;13.052;2022-10-31T04:53:18;101693.00;;;16.10
23208;BMP180;11773;52.570;13.052;2022-10-31T04:55:48;101689.00;;;16.00
23208;BMP180;11773;52.570;13.052;2022-10-31T04:58:17;101702.00;;;16.10
23208;BMP180;11773;52.570;13.052;2022-10-31T05:00:47;101703.00;;;16.00
23208;BMP180;11773;52.570;13.052;2022-10-31T05:03:16;101704.00;;;16.00
23208;BMP180;11773;52.570;13.052;2022-10-31T05:05:46;101703.00;;;16.00
23208;BMP180;11773;52.570;13.052;2022-10-31T05:08:16;101699.00;;;16.00
23208;BMP180;11773;52.570;13.052;2022-10-31T05:10:45;101694.00;;;16.00
23208;BMP180;11773;52.570;13.052;2022-10-31T05:13:15;101696.00;;;16.00
23208;BMP180;11773;52.570;13.052;2022-10-31T05:15:44;101712.00;;;16.00
23208;BMP180;11773;52.570;13.052;2022-10-31T05:18:14;101704.00;;;16.00
23208;BMP180;11773;52.570;13.052;2022-10-31T05:20:43;101712.00;;;16.00
23208;BMP180;11773;52.570;13.052;2022-10-31T05:23:13;101713.00;;;16.00
23208;BMP180;11773;52.570;13.052;2022-10-31T05:25:43;101719.00;;;16.00
23208;BMP180;11773;52.570;13.052;2022-10-31T05:28:12;101707.00;;;16.00
23208;BMP180;11773;52.570;13.052;2022-10-31T05:30:42;101702.00;;;16.00
23208;BMP180;11773;52.570;13.052;2022-10-31T05:33:11;101713.00;;;16.00
23208;BMP180;11773;52.570;13.052;2022-10-31T05:35:41;101707.00;;;15.90
23208;BMP180;11773;52.570;13.052;2022-10-31T05:38:10;101706.00;;;15.90
23208;BMP180;11773;52.570;13.052;2022-10-31T05:40:39;101713.00;;;15.90
23208;BMP180;11773;52.570;13.052;2022-10-31T05:43:09;101716.00;;;15.90
23208;BMP180;11773;52.570;13.052;2022-10-31T05:45:38;101720.00;;;15.90
23208;BMP180;11773;52.570;13.052;2022-10-31T05:48:09;101724.00;;;15.90
23208;BMP180;11773;52.570;13.052;2022-10-31T05:50:38;101720.00;;;15.90
23208;BMP180;11773;52.570;13.052;2022-10-31T05:53:08;101728.00;;;15.90
23208;BMP180;11773;52.570;13.052;2022-10-31T05:55:38;101725.00;;;15.90
23208;BMP180;11773;52.570;13.052;2022-10-31T05:58:09;101737.00;;;15.80
23208;BMP180;11773;52.570;13.052;2022-10-31T06:00:39;101743.00;;;15.80
23208;BMP180;11773;52.570;13.052;2022-10-31T06:03:10;101729.00;;;15.80
23208;BMP180;11773;52.570;13.052;2022-10-31T06:05:39;101746.00;;;15.80
23208;BMP180;11773;52.570;13.052;2022-10-31T06:08:09;101750.00;;;15.80
23208;BMP180;11773;52.570;13.052;2022-10-31T06:10:38;101736.00;;;15.80
23208;BMP180;11773;52.570;13.052;2022-10-31T06:13:08;101735.00;;;15.80
23208;BMP180;11773;52.570;13.052;2022-10-31T06:15:37;101753.00;;;15.80
23208;BMP180;11773;52.570;13.052;2022-10-31T06:18:07;101731.00;;;15.80
23208;BMP180;11773;52.570;13.052;2022-10-31T06:20:37;101745.00;;;15.80
23208;BMP180;11773;52.570;13.052;2022-10-31T06:23:07;101738.00;;;15.80
23208;BMP180;11773;52.570;13.052;2022-10-31T06:25:37;101755.00;;;15.80
23208;BMP180;11773;52.570;13.052;2022-10-31T06:28:06;101762.00;;;15.80
23208;BMP180;11773;52.570;13.052;2022-10-31T06:30:36;101755.00;;;15.80
23208;BMP180;11773;52.570;13.052;2022-10-31T06:33:06;101771.00;;;15.80
23208;BMP180;11773;52.570;13.052;2022-10-31T06:35:35;101774.00;;;15.80
23208;BMP180;11773;52.570;13.052;2022-10-31T06:38:04;101770.00;;;15.80
23208;BMP180;11773;52.570;13.052;2022-10-31T06:40:34;101768.00;;;15.80
23208;BMP180;11773;52.570;13.052;2022-10-31T06:43:03;101777.00;;;15.80
23208;BMP180;11773;52.570;13.052;2022-10-31T06:45:33;101773.00;;;15.80
23208;BMP180;11773;52.570;13.052;2022-10-31T06:48:03;101781.00;;;15.80
23208;BMP180;11773;52.570;13.052;2022-10-31T06:50:34;101784.00;;;15.80
23208;BMP180;11773;52.570;13.052;2022-10-31T06:53:03;101769.00;;;15.80
23208;BMP180;11773;52.570;13.052;2022-10-31T06:55:33;101773.00;;;15.80
23208;BMP180;11773;52.570;13.052;2022-10-31T06:58:02;101790.00;;;15.90
23208;BMP180;11773;52.570;13.052;2022-10-31T07:00:33;101781.00;;;15.90
23208;BMP180;11773;52.570;13.052;2022-10-31T07:03:06;101796.00;;;15.90
23208;BMP180;11773;52.570;13.052;2022-10-31T07:05:36;101787.00;;;15.90
23208;BMP180;11773;52.570;13.052;2022-10-31T07:08:10;101791.00;;;15.90
23208;BMP180;11773;52.570;13.052;2022-10-31T07:10:41;101788.00;;;15.90
23208;BMP180;11773;52.570;13.052;2022-10-31T07:13:13;101792.00;;;15.90
23208;BMP180;11773;52.570;13.052;2022-10-31T07:15:44;101798.00;;;15.90
23208;BMP180;11773;52.570;13.052;2022-10-31T07:18:13;101789.00;;;16.00
23208;BMP180;11773;52.570;13.052;2022-10-31T07:20:43;101792.00;;;16.00
23208;BMP180;11773;52.570;13.052;2022-10-31T07:23:13;101801.00;;;16.00
23208;BMP180;11773;52.570;13.052;2022-10-31T07:25:42;101792.00;;;16.00
23208;BMP180;11773;52.570;13.052;2022-10-31T07:28:12;101795.00;;;16.00
23208;BMP180;11773;52.570;13.052;2022-10-31T07:30:41;101793.00;;;16.00
23208;BMP180;11773;52.570;13.052;2022-10-31T07:33:11;101808.00;;;16.10
23208;BMP180;11773;52.570;13.052;2022-10-31T07:35:40;101799.00;;;16.10
23208;BMP180;11773;52.570;13.052;2022-10-31T07:38:13;101801.00;;;16.10
23208;BMP180;11773;52.570;13.052;2022-10-31T07:40:43;101804.00;;;16.10
23208;BMP180;11773;52.570;13.052;2022-10-31T07:43:12;101805.00;;;16.20
23208;BMP180;11773;52.570;13.052;2022-10-31T07:45:42;101815.00;;;16.20
23208;BMP180;11773;52.570;13.052;2022-10-31T07:48:11;101800.00;;;16.20
23208;BMP180;11773;52.570;13.052;2022-10-31T07:50:41;101812.00;;;16.20
23208;BMP180;11773;52.570;13.052;2022-10-31T07:53:12;101812.00;;;16.30
23208;BMP180;11773;52.570;13.052;2022-10-31T07:55:43;101826.00;;;16.30
23208;BMP180;11773;52.570;13.052;2022-10-31T07:58:15;101807.00;;;16.30
23208;BMP180;11773;52.570;13.052;2022-10-31T08:00:47;101834.00;;;16.30
23208;BMP180;11773;52.570;13.052;2022-10-31T08:03:19;101826.00;;;16.30
23208;BMP180;11773;52.570;13.052;2022-10-31T08:05:48;101831.00;;;16.40
23208;BMP180;11773;52.570;13.052;2022-10-31T08:08:18;101845.00;;;16.40
23208;BMP180;11773;52.570;13.052;2022-10-31T08:10:47;101839.00;;;16.40
23208;BMP180;11773;52.570;13.052;2022-10-31T08:13:17;101839.00;;;16.40
23208;BMP180;11773;52.570;13.052;2022-10-31T08:15:46;101840.00;;;16.50
23208;BMP180;11773;52.570;13.052;2022-10-31T08:18:17;101820.00;;;16.50
23208;BMP180;11773;52.570;13.052;2022-10-31T08:20:47;101841.00;;;16.50
23208;BMP180;11773;52.570;13.052;2022-10-31T08:23:16;101828.00;;;16.50
23208;BMP180;11773;52.570;13.052;2022-10-31T08:25:46;101833.00;;;16.50
23208;BMP180;11773;52.570;13.052;2022-10-31T08:28:16;101821.00;;;16.60
23208;BMP180;11773;52.570;13.052;2022-10-31T08:30:45;101823.00;;;16.60
23208;BMP180;11773;52.570;13.052;2022-10-31T08:33:17;101828.00;;;16.60
23208;BMP180;11773;52.570;13.052;2022-10-31T08:35:47;101823.00;;;16.70
23208;BMP180;11773;52.570;13.052;2022-10-31T08:38:16;101836.00;;;16.70
23208;BMP180;11773;52.570;13.052;2022-10-31T08:40:48;101838.00;;;16.70
23208;BMP180;11773;52.570;13.052;2022-10-31T08:43:19;101843.00;;;16.80
23208;BMP180;11773;52.570;13.052;2022-10-31T08:45:49;101842.00;;;16.80
23208;BMP180;11773;52.570;13.052;2022-10-31T08:48:19;101834.00;;;16.90
23208;BMP180;11773;52.570;13.052;2022-10-31T08:50:48;101843.00;;;16.90
23208;BMP180;11773;52.570;13.052;2022-10-31T08:53:19;101833.00;;;17.00
23208;BMP180;11773;52.570;13.052;2022-10-31T08:55:49;101849.00;;;17.00
23208;BMP180;11773;52.570;13.052;2022-10-31T08:58:20;101842.00;;;17.10
23208;BMP180;11773;52.570;13.052;2022-10-31T09:00:52;101836.00;;;17.10
23208;BMP180;11773;52.570;13.052;2022-10-31T09:03:28;101841.00;;;17.20
23208;BMP180;11773;52.570;13.052;2022-10-31T09:06:01;101834.00;;;17.20
23208;BMP180;11773;52.570;13.052;2022-10-31T09:08:32;101848.00;;;17.30
23208;BMP180;11773;52.570;13.052;2022-10-31T09:11:03;101848.00;;;17.40
23208;BMP180;11773;52.570;13.052;2022-10-31T09:13:32;101838.00;;;17.40
23208;BMP180;11773;52.570;13.052;2022-10-31T09:16:04;101840.00;;;17.50
23208;BMP180;11773;52.570;13.052;2022-10-31T09:18:34;101844.00;;;17.50
23208;BMP180;11773;52.570;13.052;2022-10-31T09:21:03;101855.00;;;17.60
23208;BMP180;11773;52.570;13.052;2022-10-31T09:23:33;101850.00;;;17.70
23208;BMP180;11773;52.570;13.052;2022-10-31T09:26:03;101843.00;;;17.70
23208;BMP180;11773;52.570;13.052;2022-10-31T09:28:32;101846.00;;;17.80
23208;BMP180;11773;52.570;13.052;2022-10-31T09:31:02;101844.00;;;17.80
23208;BMP180;11773;52.570;13.052;2022-10-31T09:33:32;101855.00;;;17.90
23208;BMP180;11773;52.570;13.052;2022-10-31T09:36:01;101858.00;;;18.00
23208;BMP180;11773;52.570;13.052;2022-10-31T09:38:30;101853.00;;;18.00
23208;BMP180;11773;52.570;13.052;2022-10-31T09:41:18;101871.00;;;18.10
23208;BMP180;11773;52.570;13.052;2022-10-31T09:44:00;101856.00;;;18.20
23208;BMP180;11773;52.570;13.052;2022-10-31T09:47:05;101869.00;;;18.20
23208;BMP180;11773;52.570;13.052;2022-10-31T09:50:41;101875.00;;;18.20
23208;BMP180;11773;52.570;13.052;2022-10-31T09:52:35;101870.00;;;18.20
23208;BMP180;11773;52.570;13.052;2022-10-31T09:55:19;101871.00;;;18.30
23208;BMP180;11773;52.570;13.052;2022-10-31T09:57:49;101873.00;;;18.40
23208;BMP180;11773;52.570;13.052;2022-10-31T10:00:22;101863.00;;;18.40
23208;BMP180;11773;52.570;13.052;2022-10-31T10:06:19;101862.00;;;18.50
23208;BMP180;11773;52.570;13.052;2022-10-31T10:08:49;101870.00;;;18.60
23208;BMP180;11773;52.570;13.052;2022-10-31T10:14:46;101863.00;;;18.70
23208;BMP180;11773;52.570;13.052;2022-10-31T10:17:22;101873.00;;;18.80
23208;BMP180;11773;52.570;13.052;2022-10-31T10:20:02;101863.00;;;18.80
23208;BMP180;11773;52.570;13.052;2022-10-31T10:22:42;101860.00;;;18.90
23208;BMP180;11773;52.570;13.052;2022-10-31T10:25:25;101863.00;;;19.00
23208;BMP180;11773;52.570;13.052;2022-10-31T10:28:13;101852.00;;;19.00
23208;BMP180;11773;52.570;13.052;2022-10-31T10:33:39;101857.00;;;19.10
23208;BMP180;11773;52.570;13.052;2022-10-31T10:36:15;101856.00;;;19.20
23208;BMP180;11773;52.570;13.052;2022-10-31T10:38:58;101855.00;;;19.30
23208;BMP180;11773;52.570;13.052;2022-10-31T10:41:31;101872.00;;;19.30
23208;BMP180;11773;52.570;13.052;2022-10-31T10:44:05;101864.00;;;19.40
23208;BMP180;11773;52.570;13.052;2022-10-31T10:46:51;101861.00;;;19.50
23208;BMP180;11773;52.570;13.052;2022-10-31T10:49:52;101880.00;;;19.40
23208;BMP180;11773;52.570;13.052;2022-10-31T10:52:46;101864.00;;;19.50
23208;BMP180;11773;52.570;13.052;2022-10-31T10:55:36;101874.00;;;19.50
23208;BMP180;11773;52.570;13.052;2022-10-31T10:58:10;101861.00;;;19.50
23208;BMP180;11773;52.570;13.052;2022-10-31T11:00:43;101850.00;;;19.60
23208;BMP180;11773;52.570;13.052;2022-10-31T11:03:17;101865.00;;;19.60
23208;BMP180;11773;52.570;13.052;2022-10-31T11:05:53;101856.00;;;19.70
23208;BMP180;11773;52.570;13.052;2022-10-31T11:08:31;101857.00;;;19.70
23208;BMP180;11773;52.570;13.052;2022-10-31T11:11:31;101857.00;;;19.80
23208;BMP180;11773;52.570;13.052;2022-10-31T11:14:14;101861.00;;;19.70
23208;BMP180;11773;52.570;13.052;2022-10-31T11:16:48;101857.00;;;19.70
23208;BMP180;11773;52.570;13.052;2022-10-31T11:19:25;101856.00;;;19.80
23208;BMP180;11773;52.570;13.052;2022-10-31T11:22:08;101864.00;;;19.80
23208;BMP180;11773;52.570;13.052;2022-10-31T11:24:41;101855.00;;;19.90
23208;BMP180;11773;52.570;13.052;2022-10-31T11:27:19;101859.00;;;19.90
23208;BMP180;11773;52.570;13.052;2022-10-31T11:29:48;101852.00;;;19.90
23208;BMP180;11773;52.570;13.052;2022-10-31T11:32:24;101863.00;;;20.00
23208;BMP180;11773;52.570;13.052;2022-10-31T11:34:58;101855.00;;;20.00
23208;BMP180;11773;52.570;13.052;2022-10-31T11:37:32;101861.00;;;20.00
23208;BMP180;11773;52.570;13.052;2022-10-31T11:40:14;101839.00;;;20.00
23208;BMP180;11773;52.570;13.052;2022-10-31T11:42:42;101855.00;;;20.00
23208;BMP180;11773;52.570;13.052;2022-10-31T11:45:33;101839.00;;;20.00
23208;BMP180;11773;52.570;13.052;2022-10-31T11:48:15;101846.00;;;20.00
23208;BMP180;11773;52.570;13.052;2022-10-31T11:50:57;101847.00;;;20.00
23208;BMP180;11773;52.570;13.052;2022-10-31T11:53:33;101849.00;;;20.00
23208;BMP180;11773;52.570;13.052;2022-10-31T11:56:16;101848.00;;;20.00
23208;BMP180;11773;52.570;13.052;2022-10-31T11:59:04;101854.00;;;20.00
23208;BMP180;11773;52.570;13.052;2022-10-31T12:01:34;101851.00;;;20.00
23208;BMP180;11773;52.570;13.052;2022-10-31T12:04:10;101837.00;;;20.00
23208;BMP180;11773;52.570;13.052;2022-10-31T12:06:43;101841.00;;;20.10
23208;BMP180;11773;52.570;13.052;2022-10-31T12:09:33;101842.00;;;20.10
23208;BMP180;11773;52.570;13.052;2022-10-31T12:12:40;101840.00;;;20.10
23208;BMP180;11773;52.570;13.052;2022-10-31T12:15:32;101831.00;;;20.00
23208;BMP180;11773;52.570;13.052;2022-10-31T12:24:02;101826.00;;;20.00
23208;BMP180;11773;52.570;13.052;2022-10-31T12:32:23;101834.00;;;20.00
23208;BMP180;11773;52.570;13.052;2022-10-31T12:35:25;101813.00;;;20.00
23208;BMP180;11773;52.570;13.052;2022-10-31T12:41:29;101819.00;;;20.00
23208;BMP180;11773;52.570;13.052;2022-10-31T12:44:06;101819.00;;;20.00
23208;BMP180;11773;52.570;13.052;2022-10-31T12:47:01;101810.00;;;20.00
23208;BMP180;11773;52.570;13.052;2022-10-31T12:49:42;101813.00;;;20.00
23208;BMP180;11773;52.570;13.052;2022-10-31T12:55:26;101812.00;;;20.00
23208;BMP180;11773;52.570;13.052;2022-10-31T12:58:01;101803.00;;;20.00
23208;BMP180;11773;52.570;13.052;2022-10-31T13:00:34;101797.00;;;20.00
23208;BMP180;11773;52.570;13.052;2022-10-31T13:03:32;101811.00;;;20.10
23208;BMP180;11773;52.570;13.052;2022-10-31T13:06:09;101807.00;;;20.10
23208;BMP180;11773;52.570;13.052;2022-10-31T13:08:49;101805.00;;;20.10
23208;BMP180;11773;52.570;13.052;2022-10-31T13:11:31;101808.00;;;20.10
23208;BMP180;11773;52.570;13.052;2022-10-31T13:14:26;101805.00;;;20.10
23208;BMP180;11773;52.570;13.052;2022-10-31T13:16:57;101807.00;;;20.10
23208;BMP180;11773;52.570;13.052;2022-10-31T13:19:38;101803.00;;;20.10
23208;BMP180;11773;52.570;13.052;2022-10-31T13:22:17;101802.00;;;20.20
23208;BMP180;11773;52.570;13.052;2022-10-31T13:27:49;101806.00;;;20.10
23208;BMP180;11773;52.570;13.052;2022-10-31T13:30:22;101805.00;;;20.10
23208;BMP180;11773;52.570;13.052;2022-10-31T13:33:14;101802.00;;;20.20
23208;BMP180;11773;52.570;13.052;2022-10-31T13:36:28;101794.00;;;20.10
23208;BMP180;11773;52.570;13.052;2022-10-31T13:42:08;101794.00;;;20.10
23208;BMP180;11773;52.570;13.052;2022-10-31T13:44:36;101793.00;;;20.10
23208;BMP180;11773;52.570;13.052;2022-10-31T13:47:29;101800.00;;;20.10
23208;BMP180;11773;52.570;13.052;2022-10-31T13:50:21;101794.00;;;20.10
23208;BMP180;11773;52.570;13.052;2022-10-31T13:52:51;101784.00;;;20.10
23208;BMP180;11773;52.570;13.052;2022-10-31T13:55:43;101794.00;;;20.10
23208;BMP180;11773;52.570;13.052;2022-10-31T13:58:27;101778.00;;;20.10
23208;BMP180;11773;52.570;13.052;2022-10-31T14:01:19;101771.00;;;20.10
23208;BMP180;11773;52.570;13.052;2022-10-31T14:04:15;101781.00;;;20.10
23208;BMP180;11773;52.570;13.052;2022-10-31T14:06:55;101773.00;;;20.10
23208;BMP180;11773;52.570;13.052;2022-10-31T14:09:54;101774.00;;;20.10
23208;BMP180;11773;52.570;13.052;2022-10-31T14:12:22;101760.00;;;20.10
23208;BMP180;11773;52.570;13.052;2022-10-31T14:14:49;101761.00;;;20.10
23208;BMP180;11773;52.570;13.052;2022-10-31T14:17:29;101756.00;;;20.10
23208;BMP180;11773;52.570;13.052;2022-10-31T14:22:41;101760.00;;;20.20
23208;BMP180;11773;52.570;13.052;2022-10-31T14:25:35;101761.00;;;20.20
23208;BMP180;11773;52.570;13.052;2022-10-31T14:28:33;101761.00;;;20.20
23208;BMP180;11773;52.570;13.052;2022-10-31T14:31:21;101752.00;;;20.10
23208;BMP180;11773;52.570;13.052;2022-10-31T14:33:36;101765.00;;;20.10
23208;BMP180;11773;52.570;13.052;2022-10-31T14:36:15;101772.00;;;20.20
23208;BMP180;11773;52.570;13.052;2022-10-31T14:39:04;101755.00;;;20.20
23208;BMP180;11773;52.570;13.052;2022-10-31T14:41:56;101747.00;;;20.10
23208;BMP180;11773;52.570;13.052;2022-10-31T14:44:39;101748.00;;;20.10
23208;BMP180;11773;52.570;13.052;2022-10-31T14:47:31;101744.00;;;20.10
23208;BMP180;11773;52.570;13.052;2022-10-31T14:50:12;101740.00;;;20.10
23208;BMP180;11773;52.570;13.052;2022-10-31T14:52:40;101743.00;;;20.10
23208;BMP180;11773;52.570;13.052;2022-10-31T14:55:13;101740.00;;;20.10
23208;BMP180;11773;52.570;13.052;2022-10-31T14:57:53;101738.00;;;20.10
23208;BMP180;11773;52.570;13.052;2022-10-31T15:00:24;101737.00;;;20.10
23208;BMP180;11773;52.570;13.052;2022-10-31T15:03:15;101735.00;;;20.10
23208;BMP180;11773;52.570;13.052;2022-10-31T15:05:58;101739.00;;;20.10
23208;BMP180;11773;52.570;13.052;2022-10-31T15:11:23;101726.00;;;20.00
23208;BMP180;11773;52.570;13.052;2022-10-31T15:13:58;101731.00;;;20.00
23208;BMP180;11773;52.570;13.052;2022-10-31T15:16:38;101732.00;;;20.00
23208;BMP180;11773;52.570;13.052;2022-10-31T15:19:16;101732.00;;;20.00
23208;BMP180;11773;52.570;13.052;2022-10-31T15:21:46;101720.00;;;20.00
23208;BMP180;11773;52.570;13.052;2022-10-31T15:24:16;101717.00;;;20.00
23208;BMP180;11773;52.570;13.052;2022-10-31T15:26:50;101732.00;;;20.00
23208;BMP180;11773;52.570;13.052;2022-10-31T15:29:26;101706.00;;;20.00
23208;BMP180;11773;52.570;13.052;2022-10-31T15:32:00;101718.00;;;20.00